sensor_id;sensor_type;location;lat;lon;timestamp;P1;durP1;ratioP1;P2;durP2;ratioP2
30892;SDS011;17595;50.884;4.346;2023-06-22T00:00:55;0.65;;;0.50;;
30892;SDS011;17595;50.884;4.346;2023-06-22T00:03:22;0.50;;;0.50;;
30892;SDS011;17595;50.884;4.346;2023-06-22T00:05:49;0.68;;;0.65;;
30892;SDS011;17595;50.884;4.346;2023-06-22T00:08:15;0.60;;;0.50;;
30892;SDS011;17595;50.884;4.346;2023-06-22T00:10:41;0.60;;;0.60;;
30892;SDS011;17595;50.884;4.346;2023-06-22T00:13:08;0.60;;;0.60;;
30892;SDS011;17595;50.884;4.346;2023-06-22T00:15:35;0.73;;;0.50;;
30892;SDS011;17595;50.884;4.346;2023-06-22T00:18:02;0.50;;;0.43;;
30892;SDS011;17595;50.884;4.346;2023-06-22T00:20:28;0.35;;;0.35;;
30892;SDS011;17595;50.884;4.346;2023-06-22T00:22:55;1.90;;;0.80;;
30892;SDS011;17595;50.884;4.346;2023-06-22T00:25:22;0.50;;;0.50;;
30892;SDS011;17595;50.884;4.346;2023-06-22T00:27:48;1.00;;;0.93;;
30892;SDS011;17595;50.884;4.346;2023-06-22T00:30:17;0.82;;;0.52;;
30892;SDS011;17595;50.884;4.346;2023-06-22T00:32:43;0.40;;;0.40;;
30892;SDS011;17595;50.884;4.346;2023-06-22T00:35:09;0.20;;;0.20;;
30892;SDS011;17595;50.884;4.346;2023-06-22T00:37:36;2.63;;;0.65;;
30892;SDS011;17595;50.884;4.346;2023-06-22T00:40:04;1.15;;;0.95;;
30892;SDS011;17595;50.884;4.346;2023-06-22T00:42:30;0.55;;;0.50;;
30892;SDS011;17595;50.884;4.346;2023-06-22T00:44:56;0.90;;;0.40;;
30892;SDS011;17595;50.884;4.346;2023-06-22T00:47:22;0.50;;;0.50;;
30892;SDS011;17595;50.884;4.346;2023-06-22T00:49:48;0.52;;;0.43;;
30892;SDS011;17595;50.884;4.346;2023-06-22T00:52:16;0.60;;;0.60;;
30892;SDS011;17595;50.884;4.346;2023-06-22T00:54:45;0.40;;;0.40;;
30892;SDS011;17595;50.884;4.346;2023-06-22T00:57:15;1.83;;;0.77;;
30892;SDS011;17595;50.884;4.346;2023-06-22T00:59:42;0.30;;;0.22;;
30892;SDS011;17595;50.884;4.346;2023-06-22T01:02:12;0.70;;;0.52;;
30892;SDS011;17595;50.884;4.346;2023-06-22T01:04:39;0.30;;;0.20;;
30892;SDS011;17595;50.884;4.346;2023-06-22T01:09:31;1.15;;;0.75;;
30892;SDS011;17595;50.884;4.346;2023-06-22T01:12:01;0.47;;;0.43;;
30892;SDS011;17595;50.884;4.346;2023-06-22T01:14:41;0.45;;;0.30;;
30892;SDS011;17595;50.884;4.346;2023-06-22T01:17:12;0.43;;;0.40;;
30892;SDS011;17595;50.884;4.346;2023-06-22T01:19:49;0.35;;;0.30;;
30892;SDS011;17595;50.884;4.346;2023-06-22T01:22:20;0.45;;;0.30;;
30892;SDS011;17595;50.884;4.346;2023-06-22T01:27:23;1.08;;;0.88;;
30892;SDS011;17595;50.884;4.346;2023-06-22T01:29:58;0.38;;;0.30;;
30892;SDS011;17595;50.884;4.346;2023-06-22T01:32:28;0.40;;;0.40;;
30892;SDS011;17595;50.884;4.346;2023-06-22T01:35:00;0.30;;;0.30;;
30892;SDS011;17595;50.884;4.346;2023-06-22T01:37:28;0.30;;;0.30;;
30892;SDS011;17595;50.884;4.346;2023-06-22T01:39:57;1.30;;;0.45;;
30892;SDS011;17595;50.884;4.346;2023-06-22T01:42:26;0.20;;;0.20;;
30892;SDS011;17595;50.884;4.346;2023-06-22T01:44:53;0.60;;;0.60;;
30892;SDS011;17595;50.884;4.346;2023-06-22T01:47:22;0.30;;;0.30;;
30892;SDS011;17595;50.884;4.346;2023-06-22T01:49:49;0.40;;;0.40;;
30892;SDS011;17595;50.884;4.346;2023-06-22T01:52:16;0.50;;;0.50;;
30892;SDS011;17595;50.884;4.346;2023-06-22T01:54:42;0.40;;;0.30;;
30892;SDS011;17595;50.884;4.346;2023-06-22T01:57:09;1.25;;;0.60;;
30892;SDS011;17595;50.884;4.346;2023-06-22T01:59:53;0.40;;;0.40;;
30892;SDS011;17595;50.884;4.346;2023-06-22T02:02:32;0.63;;;0.47;;
30892;SDS011;17595;50.884;4.346;2023-06-22T02:05:07;0.95;;;0.50;;
30892;SDS011;17595;50.884;4.346;2023-06-22T02:07:46;0.30;;;0.30;;
30892;SDS011;17595;50.884;4.346;2023-06-22T02:10:17;0.50;;;0.50;;
30892;SDS011;17595;50.884;4.346;2023-06-22T02:12:45;0.63;;;0.63;;
30892;SDS011;17595;50.884;4.346;2023-06-22T02:15:12;0.47;;;0.47;;
30892;SDS011;17595;50.884;4.346;2023-06-22T02:17:39;0.45;;;0.30;;
30892;SDS011;17595;50.884;4.346;2023-06-22T02:20:18;0.30;;;0.30;;
30892;SDS011;17595;50.884;4.346;2023-06-22T02:22:45;0.80;;;0.47;;
30892;SDS011;17595;50.884;4.346;2023-06-22T02:25:10;0.50;;;0.50;;
30892;SDS011;17595;50.884;4.346;2023-06-22T02:27:36;1.13;;;0.70;;
30892;SDS011;17595;50.884;4.346;2023-06-22T02:30:05;4.32;;;1.35;;
30892;SDS011;17595;50.884;4.346;2023-06-22T02:32:33;0.32;;;0.32;;
30892;SDS011;17595;50.884;4.346;2023-06-22T02:35:00;2.78;;;1.05;;
30892;SDS011;17595;50.884;4.346;2023-06-22T02:37:29;0.30;;;0.30;;
30892;SDS011;17595;50.884;4.346;2023-06-22T02:39:55;0.60;;;0.60;;
30892;SDS011;17595;50.884;4.346;2023-06-22T02:42:21;0.70;;;0.70;;
30892;SDS011;17595;50.884;4.346;2023-06-22T02:44:47;0.80;;;0.70;;
30892;SDS011;17595;50.884;4.346;2023-06-22T02:47:13;0.60;;;0.60;;
30892;SDS011;17595;50.884;4.346;2023-06-22T02:49:39;0.65;;;0.47;;
30892;SDS011;17595;50.884;4.346;2023-06-22T02:52:05;0.40;;;0.30;;
30892;SDS011;17595;50.884;4.346;2023-06-22T02:54:30;1.15;;;0.77;;
30892;SDS011;17595;50.884;4.346;2023-06-22T02:56:56;0.93;;;0.50;;
30892;SDS011;17595;50.884;4.346;2023-06-22T02:59:22;0.70;;;0.70;;
30892;SDS011;17595;50.884;4.346;2023-06-22T03:01:49;0.47;;;0.47;;
30892;SDS011;17595;50.884;4.346;2023-06-22T03:04:15;0.95;;;0.40;;
30892;SDS011;17595;50.884;4.346;2023-06-22T03:06:41;0.80;;;0.63;;
30892;SDS011;17595;50.884;4.346;2023-06-22T03:09:07;0.35;;;0.35;;
30892;SDS011;17595;50.884;4.346;2023-06-22T03:11:33;0.80;;;0.80;;
30892;SDS011;17595;50.884;4.346;2023-06-22T03:14:00;1.00;;;0.90;;
30892;SDS011;17595;50.884;4.346;2023-06-22T03:16:26;1.08;;;0.88;;
30892;SDS011;17595;50.884;4.346;2023-06-22T03:18:52;0.82;;;0.70;;
30892;SDS011;17595;50.884;4.346;2023-06-22T03:23:47;0.63;;;0.30;;
30892;SDS011;17595;50.884;4.346;2023-06-22T03:26:13;0.60;;;0.60;;
30892;SDS011;17595;50.884;4.346;2023-06-22T03:28:41;0.55;;;0.55;;
30892;SDS011;17595;50.884;4.346;2023-06-22T03:31:07;0.55;;;0.55;;
30892;SDS011;17595;50.884;4.346;2023-06-22T03:33:33;0.75;;;0.75;;
30892;SDS011;17595;50.884;4.346;2023-06-22T03:35:58;0.60;;;0.60;;
30892;SDS011;17595;50.884;4.346;2023-06-22T03:38:24;0.50;;;0.50;;
30892;SDS011;17595;50.884;4.346;2023-06-22T03:40:51;0.47;;;0.47;;
30892;SDS011;17595;50.884;4.346;2023-06-22T03:43:16;0.47;;;0.35;;
30892;SDS011;17595;50.884;4.346;2023-06-22T03:45:42;0.70;;;0.63;;
30892;SDS011;17595;50.884;4.346;2023-06-22T03:48:10;0.47;;;0.47;;
30892;SDS011;17595;50.884;4.346;2023-06-22T03:50:36;1.13;;;0.60;;
30892;SDS011;17595;50.884;4.346;2023-06-22T03:53:02;1.30;;;0.70;;
30892;SDS011;17595;50.884;4.346;2023-06-22T03:55:27;1.02;;;0.70;;
30892;SDS011;17595;50.884;4.346;2023-06-22T03:57:53;0.80;;;0.50;;
30892;SDS011;17595;50.884;4.346;2023-06-22T04:00:21;0.80;;;0.73;;
30892;SDS011;17595;50.884;4.346;2023-06-22T04:02:48;0.98;;;0.88;;
30892;SDS011;17595;50.884;4.346;2023-06-22T04:05:13;1.33;;;0.95;;
30892;SDS011;17595;50.884;4.346;2023-06-22T04:07:39;1.00;;;0.77;;
30892;SDS011;17595;50.884;4.346;2023-06-22T04:10:04;0.80;;;0.60;;
30892;SDS011;17595;50.884;4.346;2023-06-22T04:12:30;1.10;;;1.00;;
30892;SDS011;17595;50.884;4.346;2023-06-22T04:14:56;0.50;;;0.50;;
30892;SDS011;17595;50.884;4.346;2023-06-22T04:17:23;1.15;;;0.73;;
30892;SDS011;17595;50.884;4.346;2023-06-22T04:19:50;0.50;;;0.50;;
30892;SDS011;17595;50.884;4.346;2023-06-22T04:22:16;1.13;;;1.00;;
30892;SDS011;17595;50.884;4.346;2023-06-22T04:24:41;1.48;;;1.02;;
30892;SDS011;17595;50.884;4.346;2023-06-22T04:27:07;1.55;;;1.45;;
30892;SDS011;17595;50.884;4.346;2023-06-22T04:29:33;1.55;;;0.98;;
30892;SDS011;17595;50.884;4.346;2023-06-22T04:31:58;2.17;;;1.77;;
30892;SDS011;17595;50.884;4.346;2023-06-22T04:34:30;0.80;;;0.80;;
30892;SDS011;17595;50.884;4.346;2023-06-22T04:36:56;1.20;;;0.90;;
30892;SDS011;17595;50.884;4.346;2023-06-22T04:39:22;1.05;;;0.82;;
30892;SDS011;17595;50.884;4.346;2023-06-22T04:41:48;1.38;;;1.23;;
30892;SDS011;17595;50.884;4.346;2023-06-22T04:44:16;0.98;;;0.88;;
30892;SDS011;17595;50.884;4.346;2023-06-22T04:46:50;1.83;;;1.20;;
30892;SDS011;17595;50.884;4.346;2023-06-22T04:49:25;1.13;;;0.82;;
30892;SDS011;17595;50.884;4.346;2023-06-22T04:51:57;0.70;;;0.70;;
30892;SDS011;17595;50.884;4.346;2023-06-22T04:54:26;1.73;;;1.20;;
30892;SDS011;17595;50.884;4.346;2023-06-22T04:56:52;0.90;;;0.90;;
30892;SDS011;17595;50.884;4.346;2023-06-22T04:59:22;1.00;;;0.77;;
30892;SDS011;17595;50.884;4.346;2023-06-22T05:01:53;1.15;;;0.88;;
30892;SDS011;17595;50.884;4.346;2023-06-22T05:04:19;1.95;;;1.27;;
30892;SDS011;17595;50.884;4.346;2023-06-22T05:06:45;1.60;;;1.00;;
30892;SDS011;17595;50.884;4.346;2023-06-22T05:09:10;1.05;;;0.95;;
30892;SDS011;17595;50.884;4.346;2023-06-22T05:11:37;0.85;;;0.80;;
30892;SDS011;17595;50.884;4.346;2023-06-22T05:14:02;1.13;;;0.98;;
30892;SDS011;17595;50.884;4.346;2023-06-22T05:16:28;1.45;;;1.13;;
30892;SDS011;17595;50.884;4.346;2023-06-22T05:18:54;1.55;;;1.25;;
30892;SDS011;17595;50.884;4.346;2023-06-22T05:21:24;1.30;;;1.20;;
30892;SDS011;17595;50.884;4.346;2023-06-22T05:23:51;0.80;;;0.80;;
30892;SDS011;17595;50.884;4.346;2023-06-22T05:26:18;1.38;;;0.93;;
30892;SDS011;17595;50.884;4.346;2023-06-22T05:28:44;1.35;;;0.90;;
30892;SDS011;17595;50.884;4.346;2023-06-22T05:31:14;0.68;;;0.55;;
30892;SDS011;17595;50.884;4.346;2023-06-22T05:33:41;1.23;;;0.90;;
30892;SDS011;17595;50.884;4.346;2023-06-22T05:36:08;1.77;;;0.98;;
30892;SDS011;17595;50.884;4.346;2023-06-22T05:38:35;1.40;;;1.05;;
30892;SDS011;17595;50.884;4.346;2023-06-22T05:41:01;1.40;;;1.30;;
30892;SDS011;17595;50.884;4.346;2023-06-22T05:43:27;1.23;;;1.13;;
30892;SDS011;17595;50.884;4.346;2023-06-22T05:45:52;0.93;;;0.93;;
30892;SDS011;17595;50.884;4.346;2023-06-22T05:48:18;1.33;;;1.17;;
30892;SDS011;17595;50.884;4.346;2023-06-22T05:50:44;3.13;;;1.63;;
30892;SDS011;17595;50.884;4.346;2023-06-22T05:53:09;1.20;;;0.90;;
30892;SDS011;17595;50.884;4.346;2023-06-22T05:55:35;0.90;;;0.60;;
30892;SDS011;17595;50.884;4.346;2023-06-22T05:58:00;3.28;;;1.52;;
30892;SDS011;17595;50.884;4.346;2023-06-22T06:00:28;1.52;;;1.23;;
30892;SDS011;17595;50.884;4.346;2023-06-22T06:02:53;2.15;;;1.77;;
30892;SDS011;17595;50.884;4.346;2023-06-22T06:05:19;2.30;;;1.52;;
30892;SDS011;17595;50.884;4.346;2023-06-22T06:07:44;1.77;;;1.23;;
30892;SDS011;17595;50.884;4.346;2023-06-22T06:10:11;1.52;;;1.00;;
30892;SDS011;17595;50.884;4.346;2023-06-22T06:12:37;2.35;;;1.70;;
30892;SDS011;17595;50.884;4.346;2023-06-22T06:15:04;1.48;;;1.20;;
30892;SDS011;17595;50.884;4.346;2023-06-22T06:17:30;1.52;;;1.40;;
30892;SDS011;17595;50.884;4.346;2023-06-22T06:19:56;2.38;;;2.15;;
30892;SDS011;17595;50.884;4.346;2023-06-22T06:22:22;1.83;;;1.52;;
30892;SDS011;17595;50.884;4.346;2023-06-22T06:24:48;1.80;;;1.48;;
30892;SDS011;17595;50.884;4.346;2023-06-22T06:27:15;1.35;;;1.10;;
30892;SDS011;17595;50.884;4.346;2023-06-22T06:29:43;1.85;;;1.63;;
30892;SDS011;17595;50.884;4.346;2023-06-22T06:32:10;4.05;;;2.10;;
30892;SDS011;17595;50.884;4.346;2023-06-22T06:34:38;1.15;;;1.13;;
30892;SDS011;17595;50.884;4.346;2023-06-22T06:37:03;2.05;;;1.65;;
30892;SDS011;17595;50.884;4.346;2023-06-22T06:39:29;3.15;;;2.53;;
30892;SDS011;17595;50.884;4.346;2023-06-22T06:41:54;2.38;;;1.83;;
30892;SDS011;17595;50.884;4.346;2023-06-22T06:44:20;1.90;;;1.60;;
30892;SDS011;17595;50.884;4.346;2023-06-22T06:46:46;2.67;;;1.63;;
30892;SDS011;17595;50.884;4.346;2023-06-22T06:49:11;3.33;;;2.42;;
30892;SDS011;17595;50.884;4.346;2023-06-22T06:51:38;2.40;;;2.10;;
30892;SDS011;17595;50.884;4.346;2023-06-22T06:54:04;2.58;;;2.38;;
30892;SDS011;17595;50.884;4.346;2023-06-22T06:56:29;2.05;;;1.83;;
30892;SDS011;17595;50.884;4.346;2023-06-22T06:58:55;5.00;;;1.95;;
30892;SDS011;17595;50.884;4.346;2023-06-22T07:01:20;3.00;;;2.38;;
30892;SDS011;17595;50.884;4.346;2023-06-22T07:03:46;3.40;;;1.58;;
30892;SDS011;17595;50.884;4.346;2023-06-22T07:06:12;3.60;;;1.63;;
30892;SDS011;17595;50.884;4.346;2023-06-22T07:08:38;2.47;;;2.25;;
30892;SDS011;17595;50.884;4.346;2023-06-22T07:11:04;2.28;;;2.08;;
30892;SDS011;17595;50.884;4.346;2023-06-22T07:13:30;1.83;;;1.70;;
30892;SDS011;17595;50.884;4.346;2023-06-22T07:15:56;1.65;;;1.55;;
30892;SDS011;17595;50.884;4.346;2023-06-22T07:18:22;2.53;;;2.03;;
30892;SDS011;17595;50.884;4.346;2023-06-22T07:20:48;3.55;;;1.63;;
30892;SDS011;17595;50.884;4.346;2023-06-22T07:23:14;2.67;;;2.20;;
30892;SDS011;17595;50.884;4.346;2023-06-22T07:25:39;1.90;;;1.30;;
30892;SDS011;17595;50.884;4.346;2023-06-22T07:28:05;1.77;;;1.50;;
30892;SDS011;17595;50.884;4.346;2023-06-22T07:30:32;2.30;;;1.95;;
30892;SDS011;17595;50.884;4.346;2023-06-22T07:32:59;2.13;;;1.48;;
30892;SDS011;17595;50.884;4.346;2023-06-22T07:35:29;2.20;;;2.00;;
30892;SDS011;17595;50.884;4.346;2023-06-22T07:37:55;3.03;;;2.10;;
30892;SDS011;17595;50.884;4.346;2023-06-22T07:40:21;1.70;;;1.60;;
30892;SDS011;17595;50.884;4.346;2023-06-22T07:42:48;3.38;;;2.65;;
30892;SDS011;17595;50.884;4.346;2023-06-22T07:45:16;2.08;;;1.88;;
30892;SDS011;17595;50.884;4.346;2023-06-22T07:47:42;3.65;;;2.40;;
30892;SDS011;17595;50.884;4.346;2023-06-22T07:50:08;4.38;;;2.20;;
30892;SDS011;17595;50.884;4.346;2023-06-22T07:52:34;2.30;;;1.33;;
30892;SDS011;17595;50.884;4.346;2023-06-22T07:55:00;2.13;;;1.92;;
30892;SDS011;17595;50.884;4.346;2023-06-22T07:57:26;2.33;;;2.13;;
30892;SDS011;17595;50.884;4.346;2023-06-22T08:00:02;1.73;;;1.63;;
30892;SDS011;17595;50.884;4.346;2023-06-22T08:02:33;2.10;;;1.83;;
30892;SDS011;17595;50.884;4.346;2023-06-22T08:04:58;2.00;;;1.67;;
30892;SDS011;17595;50.884;4.346;2023-06-22T08:07:24;1.88;;;1.60;;
30892;SDS011;17595;50.884;4.346;2023-06-22T08:09:49;1.63;;;1.35;;
30892;SDS011;17595;50.884;4.346;2023-06-22T08:12:15;2.28;;;1.90;;
30892;SDS011;17595;50.884;4.346;2023-06-22T08:14:41;2.55;;;2.03;;
30892;SDS011;17595;50.884;4.346;2023-06-22T08:17:08;1.67;;;1.58;;
30892;SDS011;17595;50.884;4.346;2023-06-22T08:19:34;2.10;;;1.85;;
30892;SDS011;17595;50.884;4.346;2023-06-22T08:21:59;2.25;;;1.80;;
30892;SDS011;17595;50.884;4.346;2023-06-22T08:24:25;2.78;;;2.10;;
30892;SDS011;17595;50.884;4.346;2023-06-22T08:26:55;2.90;;;2.58;;
30892;SDS011;17595;50.884;4.346;2023-06-22T08:29:21;1.48;;;1.38;;
30892;SDS011;17595;50.884;4.346;2023-06-22T08:31:47;3.70;;;2.05;;
30892;SDS011;17595;50.884;4.346;2023-06-22T08:34:12;2.10;;;1.90;;
30892;SDS011;17595;50.884;4.346;2023-06-22T08:36:38;1.88;;;1.63;;
30892;SDS011;17595;50.884;4.346;2023-06-22T08:39:06;2.45;;;1.88;;
30892;SDS011;17595;50.884;4.346;2023-06-22T08:41:33;2.33;;;2.13;;
30892;SDS011;17595;50.884;4.346;2023-06-22T08:43:59;1.73;;;1.63;;
30892;SDS011;17595;50.884;4.346;2023-06-22T08:46:24;1.77;;;1.55;;
30892;SDS011;17595;50.884;4.346;2023-06-22T08:48:55;1.95;;;1.40;;
30892;SDS011;17595;50.884;4.346;2023-06-22T08:51:22;4.18;;;2.40;;
30892;SDS011;17595;50.884;4.346;2023-06-22T08:53:49;1.70;;;1.52;;
30892;SDS011;17595;50.884;4.346;2023-06-22T08:56:15;2.70;;;2.50;;
30892;SDS011;17595;50.884;4.346;2023-06-22T08:58:41;3.13;;;1.92;;
30892;SDS011;17595;50.884;4.346;2023-06-22T09:01:06;2.60;;;1.77;;
30892;SDS011;17595;50.884;4.346;2023-06-22T09:03:32;2.35;;;1.80;;
30892;SDS011;17595;50.884;4.346;2023-06-22T09:06:01;2.85;;;2.55;;
30892;SDS011;17595;50.884;4.346;2023-06-22T09:08:26;1.85;;;1.75;;
30892;SDS011;17595;50.884;4.346;2023-06-22T09:10:52;2.65;;;2.28;;
30892;SDS011;17595;50.884;4.346;2023-06-22T09:13:18;3.38;;;2.38;;
30892;SDS011;17595;50.884;4.346;2023-06-22T09:15:43;2.50;;;1.73;;
30892;SDS011;17595;50.884;4.346;2023-06-22T09:18:12;2.40;;;2.17;;
30892;SDS011;17595;50.884;4.346;2023-06-22T09:20:38;2.70;;;2.35;;
30892;SDS011;17595;50.884;4.346;2023-06-22T09:23:04;1.60;;;1.50;;
30892;SDS011;17595;50.884;4.346;2023-06-22T09:25:30;3.63;;;1.77;;
30892;SDS011;17595;50.884;4.346;2023-06-22T09:27:56;2.42;;;2.00;;
30892;SDS011;17595;50.884;4.346;2023-06-22T09:30:21;1.85;;;1.73;;
30892;SDS011;17595;50.884;4.346;2023-06-22T09:32:47;1.90;;;1.55;;
30892;SDS011;17595;50.884;4.346;2023-06-22T09:35:13;1.65;;;1.55;;
30892;SDS011;17595;50.884;4.346;2023-06-22T09:37:39;2.15;;;1.92;;
30892;SDS011;17595;50.884;4.346;2023-06-22T09:40:06;2.67;;;2.45;;
30892;SDS011;17595;50.884;4.346;2023-06-22T09:42:37;1.80;;;1.50;;
30892;SDS011;17595;50.884;4.346;2023-06-22T09:45:03;1.92;;;1.75;;
30892;SDS011;17595;50.884;4.346;2023-06-22T09:47:30;2.15;;;1.92;;
30892;SDS011;17595;50.884;4.346;2023-06-22T09:49:55;1.63;;;1.48;;
30892;SDS011;17595;50.884;4.346;2023-06-22T09:52:21;2.13;;;1.92;;
30892;SDS011;17595;50.884;4.346;2023-06-22T09:54:47;2.58;;;2.38;;
30892;SDS011;17595;50.884;4.346;2023-06-22T09:57:12;2.08;;;1.88;;
30892;SDS011;17595;50.884;4.346;2023-06-22T09:59:38;2.70;;;2.17;;
30892;SDS011;17595;50.884;4.346;2023-06-22T10:02:07;1.67;;;1.58;;
30892;SDS011;17595;50.884;4.346;2023-06-22T10:04:33;2.70;;;2.47;;
30892;SDS011;17595;50.884;4.346;2023-06-22T10:07:00;2.67;;;2.47;;
30892;SDS011;17595;50.884;4.346;2023-06-22T10:09:26;1.40;;;1.30;;
30892;SDS011;17595;50.884;4.346;2023-06-22T10:11:51;2.70;;;1.63;;
30892;SDS011;17595;50.884;4.346;2023-06-22T10:14:17;2.13;;;1.95;;
30892;SDS011;17595;50.884;4.346;2023-06-22T10:16:43;1.60;;;1.50;;
30892;SDS011;17595;50.884;4.346;2023-06-22T10:19:09;2.25;;;1.98;;
30892;SDS011;17595;50.884;4.346;2023-06-22T10:21:34;2.65;;;1.88;;
30892;SDS011;17595;50.884;4.346;2023-06-22T10:24:00;1.50;;;1.40;;
30892;SDS011;17595;50.884;4.346;2023-06-22T10:26:33;2.28;;;2.08;;
30892;SDS011;17595;50.884;4.346;2023-06-22T10:29:00;1.85;;;1.55;;
30892;SDS011;17595;50.884;4.346;2023-06-22T10:31:26;2.38;;;2.17;;
30892;SDS011;17595;50.884;4.346;2023-06-22T10:33:52;1.67;;;1.58;;
30892;SDS011;17595;50.884;4.346;2023-06-22T10:36:19;2.40;;;2.25;;
30892;SDS011;17595;50.884;4.346;2023-06-22T10:38:44;2.47;;;2.28;;
30892;SDS011;17595;50.884;4.346;2023-06-22T10:41:11;2.63;;;2.42;;
30892;SDS011;17595;50.884;4.346;2023-06-22T10:43:37;2.15;;;1.95;;
30892;SDS011;17595;50.884;4.346;2023-06-22T10:46:03;2.45;;;2.25;;
30892;SDS011;17595;50.884;4.346;2023-06-22T10:48:28;4.78;;;2.85;;
30892;SDS011;17595;50.884;4.346;2023-06-22T10:50:54;2.47;;;2.28;;
30892;SDS011;17595;50.884;4.346;2023-06-22T10:53:20;2.85;;;2.33;;
30892;SDS011;17595;50.884;4.346;2023-06-22T10:55:46;2.30;;;2.15;;
30892;SDS011;17595;50.884;4.346;2023-06-22T10:58:12;2.88;;;2.67;;
30892;SDS011;17595;50.884;4.346;2023-06-22T11:00:38;3.50;;;2.60;;
30892;SDS011;17595;50.884;4.346;2023-06-22T11:03:03;3.17;;;2.83;;
30892;SDS011;17595;50.884;4.346;2023-06-22T11:05:29;2.25;;;1.92;;
30892;SDS011;17595;50.884;4.346;2023-06-22T11:07:54;3.33;;;3.05;;
30892;SDS011;17595;50.884;4.346;2023-06-22T11:10:20;2.08;;;1.90;;
30892;SDS011;17595;50.884;4.346;2023-06-22T11:12:46;2.67;;;2.42;;
30892;SDS011;17595;50.884;4.346;2023-06-22T11:15:11;1.50;;;1.40;;
30892;SDS011;17595;50.884;4.346;2023-06-22T11:17:37;8.82;;;4.13;;
30892;SDS011;17595;50.884;4.346;2023-06-22T11:20:02;2.83;;;2.42;;
30892;SDS011;17595;50.884;4.346;2023-06-22T11:22:39;3.05;;;2.13;;
30892;SDS011;17595;50.884;4.346;2023-06-22T11:25:07;3.22;;;2.58;;
30892;SDS011;17595;50.884;4.346;2023-06-22T11:27:34;2.75;;;2.20;;
30892;SDS011;17595;50.884;4.346;2023-06-22T11:29:59;2.95;;;2.45;;
30892;SDS011;17595;50.884;4.346;2023-06-22T11:32:25;1.70;;;1.60;;
30892;SDS011;17595;50.884;4.346;2023-06-22T11:34:51;2.15;;;1.95;;
30892;SDS011;17595;50.884;4.346;2023-06-22T11:37:17;2.38;;;2.15;;
30892;SDS011;17595;50.884;4.346;2023-06-22T11:39:42;2.63;;;2.42;;
30892;SDS011;17595;50.884;4.346;2023-06-22T11:42:08;3.17;;;2.63;;
30892;SDS011;17595;50.884;4.346;2023-06-22T11:44:35;3.40;;;2.58;;
30892;SDS011;17595;50.884;4.346;2023-06-22T11:47:00;2.40;;;2.20;;
30892;SDS011;17595;50.884;4.346;2023-06-22T11:49:28;2.83;;;2.47;;
30892;SDS011;17595;50.884;4.346;2023-06-22T11:51:56;2.92;;;2.45;;
30892;SDS011;17595;50.884;4.346;2023-06-22T11:54:21;2.00;;;1.90;;
30892;SDS011;17595;50.884;4.346;2023-06-22T11:56:47;2.88;;;2.33;;
30892;SDS011;17595;50.884;4.346;2023-06-22T11:59:12;2.90;;;2.47;;
30892;SDS011;17595;50.884;4.346;2023-06-22T12:01:38;6.53;;;2.47;;
30892;SDS011;17595;50.884;4.346;2023-06-22T12:04:04;2.78;;;2.42;;
30892;SDS011;17595;50.884;4.346;2023-06-22T12:06:31;2.63;;;2.42;;
30892;SDS011;17595;50.884;4.346;2023-06-22T12:08:57;1.98;;;1.88;;
30892;SDS011;17595;50.884;4.346;2023-06-22T12:11:23;2.70;;;2.50;;
30892;SDS011;17595;50.884;4.346;2023-06-22T12:13:49;2.72;;;2.53;;
30892;SDS011;17595;50.884;4.346;2023-06-22T12:16:14;3.03;;;2.47;;
30892;SDS011;17595;50.884;4.346;2023-06-22T12:18:40;2.92;;;2.70;;
30892;SDS011;17595;50.884;4.346;2023-06-22T12:21:06;3.30;;;3.00;;
30892;SDS011;17595;50.884;4.346;2023-06-22T12:23:32;2.33;;;1.85;;
30892;SDS011;17595;50.884;4.346;2023-06-22T12:25:57;2.88;;;1.90;;
30892;SDS011;17595;50.884;4.346;2023-06-22T12:28:25;2.30;;;2.10;;
30892;SDS011;17595;50.884;4.346;2023-06-22T12:30:50;2.63;;;2.22;;
30892;SDS011;17595;50.884;4.346;2023-06-22T12:33:16;2.20;;;2.00;;
30892;SDS011;17595;50.884;4.346;2023-06-22T12:35:41;3.42;;;2.92;;
30892;SDS011;17595;50.884;4.346;2023-06-22T12:38:07;2.65;;;2.42;;
30892;SDS011;17595;50.884;4.346;2023-06-22T12:40:34;3.05;;;2.65;;
30892;SDS011;17595;50.884;4.346;2023-06-22T12:42:59;3.55;;;1.85;;
30892;SDS011;17595;50.884;4.346;2023-06-22T12:45:27;2.72;;;2.17;;
30892;SDS011;17595;50.884;4.346;2023-06-22T12:47:56;2.63;;;2.42;;
30892;SDS011;17595;50.884;4.346;2023-06-22T12:50:22;3.15;;;2.85;;
30892;SDS011;17595;50.884;4.346;2023-06-22T12:52:48;4.13;;;3.25;;
30892;SDS011;17595;50.884;4.346;2023-06-22T12:55:13;3.85;;;3.53;;
30892;SDS011;17595;50.884;4.346;2023-06-22T12:57:39;3.00;;;2.65;;
30892;SDS011;17595;50.884;4.346;2023-06-22T13:00:05;3.70;;;2.72;;
30892;SDS011;17595;50.884;4.346;2023-06-22T13:02:32;4.00;;;3.08;;
30892;SDS011;17595;50.884;4.346;2023-06-22T13:04:58;3.13;;;2.83;;
30892;SDS011;17595;50.884;4.346;2023-06-22T13:07:24;3.95;;;3.13;;
30892;SDS011;17595;50.884;4.346;2023-06-22T13:09:50;4.50;;;3.92;;
30892;SDS011;17595;50.884;4.346;2023-06-22T13:12:19;4.05;;;2.97;;
30892;SDS011;17595;50.884;4.346;2023-06-22T13:14:45;3.10;;;2.35;;
30892;SDS011;17595;50.884;4.346;2023-06-22T13:17:12;5.35;;;3.08;;
30892;SDS011;17595;50.884;4.346;2023-06-22T13:19:39;3.35;;;3.05;;
30892;SDS011;17595;50.884;4.346;2023-06-22T13:22:04;4.13;;;3.45;;
30892;SDS011;17595;50.884;4.346;2023-06-22T13:24:32;4.25;;;3.85;;
30892;SDS011;17595;50.884;4.346;2023-06-22T13:26:57;3.38;;;3.08;;
30892;SDS011;17595;50.884;4.346;2023-06-22T13:29:23;3.20;;;2.88;;
30892;SDS011;17595;50.884;4.346;2023-06-22T13:31:48;4.72;;;3.20;;
30892;SDS011;17595;50.884;4.346;2023-06-22T13:34:15;2.38;;;2.17;;
30892;SDS011;17595;50.884;4.346;2023-06-22T13:36:40;2.70;;;2.47;;
30892;SDS011;17595;50.884;4.346;2023-06-22T13:39:06;3.35;;;3.05;;
30892;SDS011;17595;50.884;4.346;2023-06-22T13:41:31;2.65;;;2.45;;
30892;SDS011;17595;50.884;4.346;2023-06-22T13:43:58;3.03;;;2.72;;
30892;SDS011;17595;50.884;4.346;2023-06-22T13:46:23;2.67;;;2.42;;
30892;SDS011;17595;50.884;4.346;2023-06-22T13:48:49;3.00;;;2.72;;
30892;SDS011;17595;50.884;4.346;2023-06-22T13:51:14;2.92;;;2.60;;
30892;SDS011;17595;50.884;4.346;2023-06-22T13:53:40;3.30;;;3.03;;
30892;SDS011;17595;50.884;4.346;2023-06-22T13:56:06;3.50;;;3.15;;
30892;SDS011;17595;50.884;4.346;2023-06-22T13:58:31;3.67;;;2.95;;
30892;SDS011;17595;50.884;4.346;2023-06-22T14:00:57;4.72;;;3.15;;
30892;SDS011;17595;50.884;4.346;2023-06-22T14:03:23;4.07;;;3.28;;
30892;SDS011;17595;50.884;4.346;2023-06-22T14:05:48;2.47;;;2.28;;
30892;SDS011;17595;50.884;4.346;2023-06-22T14:08:14;2.78;;;2.58;;
30892;SDS011;17595;50.884;4.346;2023-06-22T14:10:40;2.95;;;2.65;;
30892;SDS011;17595;50.884;4.346;2023-06-22T14:13:05;3.97;;;3.58;;
30892;SDS011;17595;50.884;4.346;2023-06-22T14:15:31;3.42;;;3.13;;
30892;SDS011;17595;50.884;4.346;2023-06-22T14:17:57;3.13;;;2.92;;
30892;SDS011;17595;50.884;4.346;2023-06-22T14:20:23;3.40;;;3.05;;
30892;SDS011;17595;50.884;4.346;2023-06-22T14:22:48;3.55;;;3.22;;
30892;SDS011;17595;50.884;4.346;2023-06-22T14:25:14;3.40;;;3.10;;
30892;SDS011;17595;50.884;4.346;2023-06-22T14:27:39;2.67;;;2.25;;
30892;SDS011;17595;50.884;4.346;2023-06-22T14:30:05;3.63;;;3.28;;
30892;SDS011;17595;50.884;4.346;2023-06-22T14:32:31;3.58;;;3.28;;
30892;SDS011;17595;50.884;4.346;2023-06-22T14:34:57;3.03;;;2.83;;
30892;SDS011;17595;50.884;4.346;2023-06-22T14:37:23;4.40;;;3.72;;
30892;SDS011;17595;50.884;4.346;2023-06-22T14:39:48;4.47;;;4.10;;
30892;SDS011;17595;50.884;4.346;2023-06-22T14:42:14;3.35;;;2.83;;
30892;SDS011;17595;50.884;4.346;2023-06-22T14:44:39;3.60;;;3.30;;
30892;SDS011;17595;50.884;4.346;2023-06-22T14:47:05;3.72;;;3.35;;
30892;SDS011;17595;50.884;4.346;2023-06-22T14:49:31;2.88;;;2.67;;
30892;SDS011;17595;50.884;4.346;2023-06-22T14:51:56;3.88;;;3.58;;